Skip to main content

NOAA/GLERL Met Station at Muskegon, MI

Previous 3 Hours (2 minute increments)
See also Previous 5 Days (top of hour)
Jump down to Data
Switch to [English][Metric]
Zoom: Click and drag, Pan: shift-click and drag, Unzoom: double-click, Unzoom All






See also 1-day windrose plot


NOAA/GLERL Met Station at Muskegon, MI

Previous 3 Hours (2 minute increments)
See also Previous 5 Days (top of hour only)
Jump up to Graphs
Switch to [English][Metric]
                  Wind  Wind  Wind   Air   Dew   Rel     Sta   PAR
                   Spd   Gst   Dir  Temp    Pt   Hum    Pres uE/m2/
YYYY-MM-DD   EDT   kts   kts   deg     F     F     %   in Hg   sec
2021-04-19 13:50  15.4  17.1   329  41.4  35.8  80.5   29.20   894
2021-04-19 13:48  14.6  15.7   330  41.4  35.6  79.6   29.20   979
2021-04-19 13:46  16.5  17.7   332  41.5  35.4  78.7   29.20  1021
2021-04-19 13:44  15.9  17.9   333  41.5  35.5  78.9   29.20  1123
2021-04-19 13:42  17.5  19.2   332  41.5  35.2  78.0   29.20  1196
2021-04-19 13:40  18.7  19.8   335  41.5  35.1  77.5   29.20  1201
2021-04-19 13:38  18.3  19.8   336  41.5  34.9  77.1   29.19  1175
2021-04-19 13:36  18.1  19.6   336  41.7  35.0  76.9   29.20  1230
2021-04-19 13:34  18.5  21.0   334  41.9  35.2  77.0   29.20  1280
2021-04-19 13:32  17.9  19.4   335  41.9  35.4  77.6   29.19  1378
2021-04-19 13:30  19.2  21.0   341  41.9  35.2  76.9   29.19  1462
2021-04-19 13:28  16.9  18.9   338  41.7  35.2  77.5   29.19  1426
2021-04-19 13:26  17.5  18.7   339  41.7  35.2  77.3   29.19  1412
2021-04-19 13:24  16.9  18.9   342  41.7  35.4  78.1   29.19  1324
2021-04-19 13:22  16.7  19.6   341  41.9  35.9  78.9   29.19  1364
2021-04-19 13:20  15.4  17.3   342  41.9  36.6  81.1   29.19  1379
2021-04-19 13:18  14.6  16.7   342  41.7  36.2  80.4   29.19  1402
2021-04-19 13:16  15.9  17.7   341  41.7  36.5  81.4   29.19  1431
2021-04-19 13:14  15.6  16.1   338  41.5  36.2  81.0   29.19  1299
2021-04-19 13:12  16.1  17.3   337  41.5  36.0  80.6   29.19  1306
2021-04-19 13:10  15.9  17.1   334  41.7  36.3  81.0   29.19  1258
2021-04-19 13:08  15.2  17.3   334  41.7  36.8  82.4   29.19  1198
2021-04-19 13:06  15.9  17.7   333  41.7  36.3  81.0   29.19  1218
2021-04-19 13:04  16.3  17.7   330  41.9  36.8  82.0   29.19  1337
2021-04-19 13:02  15.0  17.1   330  41.9  37.1  82.9   29.19  1460
2021-04-19 13:00  15.0  17.5   328  41.9  37.2  83.3   29.19  1362
2021-04-19 12:58  14.8  16.3   327  41.9  37.4  83.9   29.19  1220
2021-04-19 12:56  13.0  15.6   327  41.9  37.4  84.0   29.19  1167
2021-04-19 12:54  12.2  14.0   325  42.1  37.9  84.8   29.19  1164
2021-04-19 12:52  13.2  14.4   324  41.9  37.5  84.1   29.19  1452
2021-04-19 12:50  13.2  15.4   325  41.9  37.7  85.0   29.19  1374
2021-04-19 12:48  13.2  14.6   322  42.1  38.2  85.9   29.19  1273
2021-04-19 12:46  11.9  14.2   324  41.9  37.7  84.7   29.18  1334
2021-04-19 12:44  13.0  15.7   323  42.1  37.3  83.0   29.18  1165
2021-04-19 12:42  12.6  13.6   326  42.3  37.2  81.9   29.18  1415
2021-04-19 12:40  12.6  13.8   328  42.3  37.0  81.5   29.18  1707
2021-04-19 12:38  13.6  15.0   331  42.3  37.0  81.5   29.18  1798
2021-04-19 12:36  13.6  15.0   333  42.4  37.4  82.0   29.18  1714
2021-04-19 12:34  13.0  14.2   331  42.3  37.2  81.9   29.18  1680
2021-04-19 12:32  13.0  14.2   333  42.3  37.0  81.5   29.18  1607
2021-04-19 12:30  14.0  15.4   334  42.4  37.1  81.3   29.18  1565
2021-04-19 12:28  14.0  15.6   336  42.3  36.8  80.8   29.18  1476
2021-04-19 12:26  15.0  17.1   339  42.4  37.0  80.8   29.18  1416
2021-04-19 12:24  15.4  17.3   336  42.1  36.6  80.7   29.18  1574
2021-04-19 12:22  16.3  17.7   339  42.1  36.5  80.4   29.18  1611
2021-04-19 12:20  15.7  17.7   339  42.1  36.7  80.9   29.18  1429
2021-04-19 12:18  15.2  18.3   342  42.1  37.0  82.0   29.18  1325
2021-04-19 12:16  17.1  19.1   343  42.1  37.2  82.6   29.18  1332
2021-04-19 12:14  15.7  18.7   345  41.9  37.3  83.5   29.18  1349
2021-04-19 12:12  16.1  18.7   343  41.9  37.8  85.1   29.18  1375
2021-04-19 12:10  15.6  18.1   342  41.9  38.1  86.2   29.18  1449
2021-04-19 12:08  15.9  18.7   338  41.9  38.2  86.7   29.18  1280
2021-04-19 12:06  15.7  16.5   339  42.1  38.5  87.0   29.18  1127
2021-04-19 12:04  15.4  16.9   340  42.3  38.7  86.9   29.17  1325
2021-04-19 12:02  15.6  18.7   341  42.1  38.6  87.2   29.17  1531
2021-04-19 12:00  15.0  17.9   341  41.9  38.8  88.7   29.17  1307
2021-04-19 11:58  14.8  16.3   335  41.9  39.1  89.8   29.17  1388
2021-04-19 11:56  14.4  16.9   332  41.5  39.1  90.8   29.17  1159
2021-04-19 11:54  13.6  15.4   329  41.5  39.3  91.5   29.17   987
2021-04-19 11:52  13.2  15.2   325  41.5  39.4  91.9   29.17   810
2021-04-19 11:50  12.2  14.0   324  41.5  39.5  92.3   29.17   704
2021-04-19 11:48  12.2  13.4   324  41.5  39.5  92.4   29.17   647
2021-04-19 11:46  12.1  13.8   325  41.4  39.4  92.5   29.17   627
2021-04-19 11:44  12.8  14.2   323  41.4  39.4  92.7   29.17   606
2021-04-19 11:42  12.1  13.6   325  41.4  39.5  93.0   29.17   583
2021-04-19 11:40  12.4  13.8   323  41.2  39.4  93.4   29.17   520
2021-04-19 11:38  12.2  14.0   320  41.0  39.3  93.7   29.17   454
2021-04-19 11:36  10.9  12.2   319  41.0  39.3  93.7   29.17   414
2021-04-19 11:34  10.5  11.9   318  41.0  39.3  93.7   29.17   339
2021-04-19 11:32  10.3  12.2   314  41.0  39.3  93.7   29.17   278
2021-04-19 11:30  10.3  11.9   318  41.0  39.4  93.8   29.17   247
2021-04-19 11:28  11.3  13.0   319  41.0  39.4  94.0   29.17   234
2021-04-19 11:26  10.7  12.8   319  41.0  39.5  94.3   29.17   224
2021-04-19 11:24   9.9  11.7   318  41.0  39.5  94.4   29.16   212
2021-04-19 11:22  10.3  11.1   317  40.8  39.3  94.3   29.17   186
2021-04-19 11:20  10.1  12.1   319  40.8  39.3  94.3   29.16   181
2021-04-19 11:18  10.5  12.2   320  40.8  39.3  94.3   29.16   170
2021-04-19 11:16   9.5  10.5   319  40.8  39.3  94.3   29.16   155
2021-04-19 11:14   8.7  10.3   318  40.8  39.2  94.0   29.16   160
2021-04-19 11:12   8.4   9.7   316  40.8  39.2  93.8   29.16   171
2021-04-19 11:10   8.4   9.7   316  41.0  39.3  93.7   29.16   170
2021-04-19 11:08   9.1  10.1   315  40.8  39.0  93.2   29.16   161
2021-04-19 11:06   9.5  10.5   319  41.0  39.2  93.1   29.16   163
2021-04-19 11:04   9.3  10.5   324  41.0  39.2  93.1   29.16   154
2021-04-19 11:02   9.7  10.9   325  41.0  39.1  93.0   29.16   155
2021-04-19 11:00  11.1  12.2   327  41.0  39.2  93.1   29.16   150
2021-04-19 10:58  10.3  11.9   329  41.0  39.1  93.0   29.16   140
2021-04-19 10:56  11.5  13.0   328  40.8  39.0  93.2   29.16   133
2021-04-19 10:54  12.4  13.4   333  40.8  39.2  93.7   29.15   130
2021-04-19 10:52  11.1  13.2   332  41.0  39.4  94.1   29.15   126
2021-04-19 10:50  10.9  12.1   333  41.0  39.5  94.2   29.15   133